Time;durP1;ratioP1;P1;durP2;ratioP2;P2;SDS_P1;SDS_P2;PMS_P1;PMS_P2;Temp;Humidity;BMP_temperature;BMP_pressure;BME280_temperature;BME280_humidity;BME280_pressure;Samples;Min_cycle;Max_cycle;Signal;HPM_P1;HPM_P2
2023/01/26 00:01:45;;;;;;;24.85;12.45;;;;;;;-0.07;100.00;101588.88;5229010;28;20435;-76
2023/01/26 00:04:15;;;;;;;24.02;11.90;;;;;;;-0.08;100.00;101588.00;5228605;28;20031;-76
2023/01/26 00:06:45;;;;;;;25.30;12.57;;;;;;;0.01;100.00;101583.94;5232319;28;20029;-75
2023/01/26 00:09:16;;;;;;;23.20;12.15;;;;;;;-0.13;100.00;101578.44;5230274;28;20055;-76
2023/01/26 00:11:46;;;;;;;24.15;12.88;;;;;;;0.04;100.00;101576.28;5228623;28;20052;-75
2023/01/26 00:14:16;;;;;;;27.45;13.35;;;;;;;0.01;100.00;101571.09;5223253;28;20379;-75
2023/01/26 00:16:47;;;;;;;23.73;12.32;;;;;;;-0.01;100.00;101567.63;5227816;28;20474;-76
2023/01/26 00:19:17;;;;;;;26.08;13.68;;;;;;;-0.14;100.00;101566.44;5231761;28;20024;-75
2023/01/26 00:21:47;;;;;;;25.75;13.30;;;;;;;0.05;100.00;101564.34;5226050;28;20428;-72
2023/01/26 00:24:17;;;;;;;23.95;12.57;;;;;;;0.07;100.00;101558.38;5232692;28;20025;-75
2023/01/26 00:26:48;;;;;;;26.63;13.05;;;;;;;-0.05;100.00;101546.13;5228258;28;20485;-76
2023/01/26 00:29:18;;;;;;;23.13;12.70;;;;;;;-0.14;100.00;101540.75;5225084;28;20028;-75
2023/01/26 00:31:49;;;;;;;24.40;12.38;;;;;;;-0.18;100.00;101541.53;5220141;28;20163;-74
2023/01/26 00:34:19;;;;;;;26.67;13.90;;;;;;;0.05;100.00;101543.78;5214986;28;20044;-74
2023/01/26 00:36:50;;;;;;;27.27;13.35;;;;;;;-0.09;100.00;101544.28;5225197;28;20028;-75
2023/01/26 00:39:20;;;;;;;27.65;13.88;;;;;;;-0.12;100.00;101550.25;5223978;28;20044;-75
2023/01/26 00:42:05;;;;;;;25.52;13.50;;;;;;;0.05;100.00;101544.63;5221224;28;20072;-74
2023/01/26 00:44:37;;;;;;;27.40;13.65;;;;;;;-0.08;100.00;101535.78;5222122;28;20041;-75
2023/01/26 00:47:10;;;;;;;28.85;14.40;;;;;;;-0.07;100.00;101542.66;5222466;28;20124;-75
2023/01/26 00:49:41;;;;;;;28.05;14.15;;;;;;;0.02;100.00;101536.84;5223224;28;20108;-75
2023/01/26 00:52:11;;;;;;;28.33;13.18;;;;;;;0.08;100.00;101543.84;5227844;28;20474;-75
2023/01/26 00:54:42;;;;;;;26.63;13.35;;;;;;;0.00;100.00;101546.25;5234498;28;20415;-75
2023/01/26 00:57:12;;;;;;;23.58;12.52;;;;;;;-0.05;100.00;101536.69;5227037;28;20032;-75
2023/01/26 00:59:42;;;;;;;27.90;13.60;;;;;;;-0.15;100.00;101541.59;5222674;28;20500;-74
2023/01/26 01:02:13;;;;;;;29.10;13.70;;;;;;;-0.29;100.00;101537.84;5229540;28;20054;-75
2023/01/26 01:04:43;;;;;;;23.48;12.45;;;;;;;-0.25;100.00;101544.81;5231259;28;20021;-72
2023/01/26 01:07:13;;;;;;;25.70;13.15;;;;;;;-0.19;100.00;101532.09;5230459;28;20036;-75
2023/01/26 01:09:45;;;;;;;23.63;12.73;;;;;;;-0.26;100.00;101532.75;5215871;28;20033;-75
2023/01/26 01:12:15;;;;;;;27.70;12.68;;;;;;;-0.37;100.00;101537.66;5221585;28;20043;-75
2023/01/26 01:14:46;;;;;;;25.73;12.80;;;;;;;-0.31;100.00;101535.25;5222625;28;20041;-74
2023/01/26 01:17:17;;;;;;;24.15;13.00;;;;;;;-0.39;100.00;101533.34;5230157;28;20035;-74
2023/01/26 01:19:47;;;;;;;21.02;12.18;;;;;;;-0.38;100.00;101535.91;5225772;28;20100;-75
2023/01/26 01:22:17;;;;;;;26.77;13.80;;;;;;;-0.42;100.00;101538.41;5230355;28;20036;-75
2023/01/26 01:24:48;;;;;;;27.67;14.50;;;;;;;-0.40;100.00;101534.16;5228483;28;20039;-75
2023/01/26 01:27:18;;;;;;;27.10;14.27;;;;;;;-0.31;100.00;101524.97;5229061;28;20379;-74
2023/01/26 01:29:49;;;;;;;26.52;14.02;;;;;;;-0.45;100.00;101531.50;5233224;28;20029;-75
2023/01/26 01:32:20;;;;;;;26.80;13.93;;;;;;;-0.48;100.00;101535.66;5231847;28;20282;-75
2023/01/26 01:34:50;;;;;;;25.38;13.18;;;;;;;-0.39;100.00;101526.47;5230165;28;20127;-73
2023/01/26 01:37:20;;;;;;;30.50;14.05;;;;;;;-0.47;100.00;101522.88;5221133;28;20028;-75
2023/01/26 01:39:50;;;;;;;30.27;15.23;;;;;;;-0.58;100.00;101526.88;5229568;28;20024;-75
2023/01/26 01:42:22;;;;;;;27.50;13.63;;;;;;;-0.35;100.00;101515.44;5233576;28;20031;-76
2023/01/26 01:45:20;;;;;;;26.58;14.20;;;;;;;-0.52;100.00;101521.88;5227088;28;20565;-75
2023/01/26 01:47:52;;;;;;;27.83;13.75;;;;;;;-0.40;100.00;101514.47;5225445;28;20025;-76
2023/01/26 01:50:24;;;;;;;27.23;14.15;;;;;;;-0.39;100.00;101520.50;5228641;28;20036;-75
2023/01/26 01:52:55;;;;;;;28.98;14.68;;;;;;;-0.43;100.00;101510.97;5225718;28;20028;-75
2023/01/26 01:55:25;;;;;;;28.20;14.63;;;;;;;-0.58;100.00;101513.19;5230597;28;20406;-75
2023/01/26 01:58:00;;;;;;;27.92;14.75;;;;;;;-0.45;100.00;101512.63;5230335;28;20033;-75
2023/01/26 02:00:30;;;;;;;31.52;15.43;;;;;;;-0.65;100.00;101501.91;5229695;28;20025;-75
2023/01/26 02:03:17;;;;;;;28.70;14.70;;;;;;;-0.54;100.00;101492.75;5232006;28;20021;-75
2023/01/26 02:06:02;;;;;;;29.42;16.05;;;;;;;-0.43;100.00;101495.56;5231766;28;20401;-75
2023/01/26 02:08:37;;;;;;;30.75;15.48;;;;;;;-0.55;100.00;101490.16;5226163;28;20098;-75
2023/01/26 02:11:32;;;;;;;32.60;15.87;;;;;;;-0.56;100.00;101483.31;5231712;28;20024;-75
2023/01/26 02:14:07;;;;;;;25.20;12.32;;;;;;;-0.55;100.00;101485.03;5224432;28;20032;-75
2023/01/26 02:16:40;;;;;;;36.80;17.42;;;;;;;-0.68;100.00;101483.00;5223016;28;20107;-75
2023/01/26 02:19:21;;;;;;;34.42;17.13;;;;;;;-0.57;100.00;101479.00;5227934;28;20025;-74
2023/01/26 02:21:57;;;;;;;33.75;16.45;;;;;;;-0.81;100.00;101474.16;5230914;28;20031;-74
2023/01/26 02:24:34;;;;;;;34.05;16.45;;;;;;;-0.55;100.00;101472.22;5216536;28;20158;-74
2023/01/26 02:27:05;;;;;;;39.55;18.50;;;;;;;-0.54;100.00;101467.09;5221260;28;20021;-74
2023/01/26 02:29:36;;;;;;;40.78;19.55;;;;;;;-0.72;100.00;101476.91;5223490;28;20040;-75
2023/01/26 02:32:06;;;;;;;38.58;18.27;;;;;;;-0.68;100.00;101483.00;5229342;28;20108;-75
2023/01/26 02:34:36;;;;;;;36.33;17.10;;;;;;;-0.53;100.00;101473.94;5232158;28;20168;-75
2023/01/26 02:37:13;;;;;;;35.47;17.20;;;;;;;-0.60;100.00;101478.91;5230490;28;20028;-76
2023/01/26 02:39:53;;;;;;;36.65;17.55;;;;;;;-0.74;100.00;101488.00;5232328;28;20024;-74
2023/01/26 02:42:43;;;;;;;35.40;17.25;;;;;;;-0.68;100.00;101485.56;5232136;28;20024;-75
2023/01/26 02:45:15;;;;;;;37.65;17.77;;;;;;;-0.62;100.00;101472.88;5221712;28;20417;-75
2023/01/26 02:47:46;;;;;;;40.20;18.65;;;;;;;-0.69;100.00;101465.88;5224827;28;20275;-74
2023/01/26 02:50:16;;;;;;;40.58;18.88;;;;;;;-0.49;100.00;101474.91;5227948;28;20466;-75
2023/01/26 02:52:47;;;;;;;36.90;17.65;;;;;;;-0.77;100.00;101473.38;5222117;28;20058;-75
2023/01/26 02:55:27;;;;;;;39.25;18.25;;;;;;;-0.60;100.00;101469.53;5227533;28;20039;-75
2023/01/26 02:58:00;;;;;;;40.30;18.15;;;;;;;-0.82;100.00;101475.00;5227625;28;20032;-75
2023/01/26 03:00:40;;;;;;;38.75;17.63;;;;;;;-0.73;100.00;101469.22;5228892;28;20487;-76
2023/01/26 03:03:14;;;;;;;40.72;17.27;;;;;;;-0.49;100.00;101464.63;5220632;28;20020;-74
2023/01/26 03:05:45;;;;;;;39.60;18.10;;;;;;;-0.62;100.00;101458.34;5225900;28;20029;-74
2023/01/26 03:08:15;;;;;;;41.50;18.23;;;;;;;-0.76;100.00;101462.28;5227733;28;20086;-75
2023/01/26 03:10:46;;;;;;;42.60;18.05;;;;;;;-0.77;100.00;101459.69;5223154;28;20043;-76
2023/01/26 03:13:16;;;;;;;46.72;19.90;;;;;;;-0.91;100.00;101455.94;5227549;28;20031;-75
2023/01/26 03:15:51;;;;;;;49.70;20.20;;;;;;;-1.02;100.00;101458.25;5226047;28;20028;-75
2023/01/26 03:29:42;;;;;;;47.30;19.70;;;;;;;-0.64;100.00;101443.75;5223112;28;20077;-74
2023/01/26 03:32:12;;;;;;;44.42;18.75;;;;;;;-0.66;100.00;101442.84;5231621;28;20021;-75
2023/01/26 03:34:43;;;;;;;47.15;20.35;;;;;;;-0.92;100.00;101446.50;5230322;28;20025;-75
2023/01/26 03:37:14;;;;;;;48.75;19.65;;;;;;;-0.63;100.00;101448.94;5230417;28;20187;-74
2023/01/26 03:56:38;;;;;;;42.35;18.02;;;;;;;-0.68;100.00;101450.53;5230306;28;20033;-74
2023/01/26 03:59:09;;;;;;;41.63;18.25;;;;;;;-0.86;100.00;101449.22;5231764;28;20025;-75
2023/01/26 04:10:09;;;;;;;43.45;18.17;;;;;;;-0.60;100.00;101440.41;5230446;28;20055;-75
2023/01/26 04:12:40;;;;;;;46.30;19.33;;;;;;;-0.62;100.00;101439.50;5234930;28;20024;-75
2023/01/26 04:23:42;;;;;;;43.10;18.80;;;;;;;-0.71;100.00;101431.63;5228969;28;20070;-75
2023/01/26 04:26:13;;;;;;;45.35;18.98;;;;;;;-0.74;100.00;101426.44;5231392;28;20258;-75
2023/01/26 04:28:43;;;;;;;43.80;18.90;;;;;;;-0.67;100.00;101430.84;5230825;28;20457;-75
2023/01/26 04:31:15;;;;;;;41.35;17.88;;;;;;;-0.52;100.00;101428.63;5229563;28;20032;-75
2023/01/26 04:33:45;;;;;;;45.65;19.10;;;;;;;-0.70;100.00;101423.94;5233942;28;20025;-75
2023/01/26 04:36:16;;;;;;;42.83;18.88;;;;;;;-0.64;100.00;101418.09;5232239;28;20074;-76
2023/01/26 04:38:46;;;;;;;43.30;18.38;;;;;;;-0.61;100.00;101418.16;5224289;28;20318;-75
2023/01/26 04:41:17;;;;;;;45.40;18.92;;;;;;;-0.70;100.00;101417.97;5234083;28;20028;-75
2023/01/26 04:43:47;;;;;;;43.55;19.10;;;;;;;-0.68;100.00;101421.41;5225771;28;20025;-75
2023/01/26 04:46:17;;;;;;;40.50;18.52;;;;;;;-0.73;100.00;101417.91;5219817;28;20061;-76
2023/01/26 04:48:48;;;;;;;43.47;19.13;;;;;;;-0.81;100.00;101404.00;5228981;28;20020;-75
2023/01/26 04:51:20;;;;;;;47.08;18.98;;;;;;;-0.71;100.00;101400.84;5232454;28;20098;-75
2023/01/26 04:53:50;;;;;;;42.50;17.17;;;;;;;-0.64;100.00;101397.56;5229000;28;20029;-74
2023/01/26 04:56:27;;;;;;;44.58;18.10;;;;;;;-0.44;100.00;101397.16;5230872;28;20036;-75
2023/01/26 04:59:00;;;;;;;43.20;18.25;;;;;;;-0.55;100.00;101397.78;5222479;28;20027;-73
2023/01/26 05:01:31;;;;;;;43.38;18.25;;;;;;;-0.65;100.00;101393.25;5225816;28;20366;-71
2023/01/26 05:04:03;;;;;;;40.20;17.67;;;;;;;-0.66;100.00;101399.22;5228288;28;20036;-75
2023/01/26 05:06:33;;;;;;;43.78;18.23;;;;;;;-0.42;100.00;101390.34;5223996;28;20163;-75
2023/01/26 05:09:04;;;;;;;40.80;17.60;;;;;;;-0.66;100.00;101391.53;5229781;28;20640;-74
2023/01/26 05:11:35;;;;;;;42.47;17.83;;;;;;;-0.67;100.00;101402.63;5230806;28;20017;-75
2023/01/26 05:14:05;;;;;;;45.22;18.92;;;;;;;-0.41;100.00;101401.50;5226573;28;20463;-76
2023/01/26 05:16:35;;;;;;;43.63;18.33;;;;;;;-0.48;100.00;101397.06;5223560;28;20534;-76
2023/01/26 05:19:06;;;;;;;44.35;17.83;;;;;;;-0.59;100.00;101393.41;5230649;28;20179;-75
2023/01/26 05:21:36;;;;;;;44.80;17.67;;;;;;;-0.43;100.00;101382.63;5223873;28;20113;-75
2023/01/26 05:24:07;;;;;;;44.67;17.73;;;;;;;-0.45;100.00;101392.00;5221420;28;20024;-74
2023/01/26 05:26:37;;;;;;;40.60;17.95;;;;;;;-0.47;100.00;101391.09;5231336;28;20043;-74
2023/01/26 05:29:07;;;;;;;43.00;17.42;;;;;;;-0.41;100.00;101402.38;5229409;28;20025;-75
2023/01/26 05:31:38;;;;;;;44.92;18.73;;;;;;;-0.34;100.00;101400.78;5231498;28;20363;-75
2023/01/26 05:34:08;;;;;;;51.35;19.38;;;;;;;-0.55;100.00;101402.91;5225536;28;20044;-75
2023/01/26 05:36:38;;;;;;;50.72;18.50;;;;;;;-0.65;100.00;101409.53;5231388;28;20556;-75
2023/01/26 05:39:08;;;;;;;44.13;17.48;;;;;;;-0.52;100.00;101403.81;5229309;28;20025;-74
2023/01/26 05:41:39;;;;;;;50.63;19.77;;;;;;;-0.62;100.00;101401.03;5227865;28;20059;-74
2023/01/26 05:44:09;;;;;;;50.97;19.70;;;;;;;-0.61;100.00;101416.47;5227690;28;20466;-74
2023/01/26 05:46:39;;;;;;;45.80;18.17;;;;;;;-0.59;100.00;101416.50;5219520;28;20031;-75
2023/01/26 05:49:10;;;;;;;49.38;19.13;;;;;;;-0.38;100.00;101409.28;5230696;28;20386;-75
2023/01/26 05:51:40;;;;;;;50.88;20.60;;;;;;;-0.51;100.00;101420.09;5225066;28;20275;-75
2023/01/26 05:54:10;;;;;;;53.63;19.70;;;;;;;-0.49;100.00;101413.28;5221731;28;20040;-75
2023/01/26 05:56:41;;;;;;;50.90;19.95;;;;;;;-0.38;100.00;101411.84;5230351;28;20036;-74
2023/01/26 05:59:11;;;;;;;47.20;19.08;;;;;;;-0.34;100.00;101416.19;5224874;28;20078;-74
2023/01/26 06:01:41;;;;;;;44.58;18.52;;;;;;;-0.25;100.00;101413.84;5217983;28;20033;-75
2023/01/26 06:04:11;;;;;;;49.45;19.42;;;;;;;-0.36;100.00;101415.31;5221704;28;20306;-76
2023/01/26 06:06:42;;;;;;;58.00;21.15;;;;;;;-0.31;100.00;101426.53;5227811;28;20105;-75
2023/01/26 06:09:12;;;;;;;53.00;19.83;;;;;;;-0.54;100.00;101413.19;5233436;28;20375;-75
2023/01/26 06:11:42;;;;;;;53.67;20.98;;;;;;;-0.69;100.00;101424.81;5218338;28;20025;-74
2023/01/26 06:14:13;;;;;;;54.90;20.05;;;;;;;-0.56;100.00;101426.84;5216704;28;20049;-74
2023/01/26 06:16:44;;;;;;;47.88;18.52;;;;;;;-0.40;100.00;101423.78;5217193;28;20098;-74
2023/01/26 06:19:15;;;;;;;54.63;20.23;;;;;;;-0.42;100.00;101420.31;5224412;28;20053;-74
2023/01/26 06:21:46;;;;;;;47.17;18.48;;;;;;;-0.35;100.00;101417.03;5226241;28;20024;-75
2023/01/26 06:24:16;;;;;;;48.72;18.73;;;;;;;-0.41;100.00;101417.75;5226705;28;20438;-76
2023/01/26 06:26:48;;;;;;;52.85;18.88;;;;;;;-0.53;100.00;101420.06;5229448;28;20316;-77
2023/01/26 06:29:18;;;;;;;59.13;20.80;;;;;;;-0.58;100.00;101424.22;5246858;22;20388;-70
2023/01/26 06:31:48;;;;;;;54.45;19.90;;;;;;;-0.53;100.00;101434.59;5219266;28;20040;-69
2023/01/26 06:34:19;;;;;;;56.72;20.42;;;;;;;-0.44;100.00;101432.22;5226591;28;20028;-71
2023/01/26 06:36:49;;;;;;;53.08;21.02;;;;;;;-0.48;100.00;101430.44;5227396;28;20153;-70
2023/01/26 06:39:19;;;;;;;57.25;20.63;;;;;;;-0.62;100.00;101431.81;5229839;28;20027;-71
2023/01/26 06:41:49;;;;;;;54.70;21.08;;;;;;;-0.48;100.00;101426.19;5222727;28;20032;-70
2023/01/26 06:44:20;;;;;;;61.25;21.73;;;;;;;-0.28;100.00;101427.47;5226573;28;20025;-71
2023/01/26 06:46:50;;;;;;;62.08;23.00;;;;;;;-0.31;100.00;101426.53;5222568;28;20380;-70
2023/01/26 06:49:20;;;;;;;60.78;21.63;;;;;;;-0.33;100.00;101436.78;5224349;28;20060;-70
2023/01/26 06:52:03;;;;;;;61.85;21.27;;;;;;;-0.43;100.00;101428.81;5228157;28;20024;-70
2023/01/26 06:54:33;;;;;;;58.13;21.23;;;;;;;-0.55;100.00;101432.00;5215698;28;20267;-70
2023/01/26 06:57:03;;;;;;;54.42;21.08;;;;;;;-0.51;100.00;101430.38;5225158;28;20028;-71
2023/01/26 06:59:33;;;;;;;52.83;19.58;;;;;;;-0.38;100.00;101433.22;5218040;28;20493;-69
2023/01/26 07:02:09;;;;;;;50.30;19.42;;;;;;;-0.45;100.00;101435.63;5228098;28;20024;-71
2023/01/26 07:04:40;;;;;;;49.72;17.75;;;;;;;-0.45;100.00;101423.66;5228427;28;20028;-70
2023/01/26 07:07:10;;;;;;;51.40;18.90;;;;;;;-0.42;100.00;101426.31;5228987;28;20505;-70
2023/01/26 07:09:40;;;;;;;52.92;18.30;;;;;;;-0.56;100.00;101426.84;5230390;28;20028;-70
2023/01/26 07:12:11;;;;;;;47.85;17.98;;;;;;;-0.43;100.00;101426.25;5233871;28;20024;-71
2023/01/26 07:14:41;;;;;;;49.17;19.02;;;;;;;-0.36;100.00;101434.13;5230261;28;20254;-70
2023/01/26 07:17:12;;;;;;;54.85;19.88;;;;;;;-0.54;100.00;101433.72;5234480;28;20040;-70
2023/01/26 07:19:42;;;;;;;56.97;20.92;;;;;;;-0.44;100.00;101440.81;5233000;28;20466;-71
2023/01/26 07:22:13;;;;;;;57.55;22.75;;;;;;;-0.27;100.00;101438.59;5234245;28;20432;-70
2023/01/26 07:24:43;;;;;;;51.08;19.35;;;;;;;-0.33;100.00;101433.34;5233876;28;20028;-71
2023/01/26 07:27:13;;;;;;;56.53;19.83;;;;;;;-0.40;100.00;101434.03;5233000;28;20385;-70
2023/01/26 07:29:45;;;;;;;60.30;21.23;;;;;;;-0.49;100.00;101433.84;5228973;28;20033;-71
2023/01/26 07:32:15;;;;;;;62.90;21.13;;;;;;;-0.31;100.00;101434.22;5231921;28;20170;-70
2023/01/26 07:34:47;;;;;;;64.43;21.83;;;;;;;-0.33;100.00;101441.91;5232182;28;20504;-69
2023/01/26 07:37:17;;;;;;;58.38;22.25;;;;;;;-0.20;100.00;101441.31;5234387;28;20118;-71
2023/01/26 07:39:47;;;;;;;72.07;27.08;;;;;;;-0.25;100.00;101434.38;5230779;28;20025;-70
2023/01/26 07:42:18;;;;;;;57.35;21.17;;;;;;;-0.38;100.00;101442.66;5230650;28;20615;-70
2023/01/26 07:44:48;;;;;;;55.75;20.30;;;;;;;-0.29;100.00;101447.97;5229171;28;20055;-70
2023/01/26 07:47:18;;;;;;;74.43;25.17;;;;;;;-0.19;100.00;101444.78;5231338;28;20032;-71
2023/01/26 07:49:49;;;;;;;69.00;25.20;;;;;;;-0.22;100.00;101445.56;5225681;28;20032;-70
2023/01/26 07:52:19;;;;;;;64.63;22.58;;;;;;;-0.08;100.00;101451.00;5232663;28;20035;-71
2023/01/26 07:54:50;;;;;;;69.45;24.70;;;;;;;-0.18;100.00;101456.78;5227586;28;20028;-70
2023/01/26 07:57:20;;;;;;;67.78;23.35;;;;;;;-0.03;100.00;101449.41;5227929;28;20116;-71
2023/01/26 07:59:51;;;;;;;74.30;24.35;;;;;;;-0.31;100.00;101450.53;5226596;28;20037;-70
2023/01/26 08:02:21;;;;;;;83.15;27.73;;;;;;;-0.18;100.00;101455.06;5234814;28;20088;-70
2023/01/26 08:04:51;;;;;;;73.35;24.60;;;;;;;-0.32;100.00;101458.19;5229344;28;20020;-70
2023/01/26 08:07:22;;;;;;;77.78;24.58;;;;;;;-0.23;100.00;101455.81;5235478;28;20040;-70
2023/01/26 08:09:52;;;;;;;74.28;23.73;;;;;;;-0.22;100.00;101449.84;5226619;28;20035;-70
2023/01/26 08:12:22;;;;;;;70.35;22.67;;;;;;;-0.33;100.00;101447.06;5235309;28;20028;-70
2023/01/26 08:14:52;;;;;;;74.05;23.77;;;;;;;-0.38;100.00;101450.34;5228359;28;20052;-70
2023/01/26 08:17:23;;;;;;;69.53;22.42;;;;;;;-0.25;100.00;101447.22;5222350;28;20029;-70
2023/01/26 08:19:53;;;;;;;73.68;22.00;;;;;;;-0.31;100.00;101447.06;5230826;28;20567;-70
2023/01/26 08:22:23;;;;;;;84.45;24.80;;;;;;;-0.38;100.00;101442.66;5228525;28;20083;-70
2023/01/26 08:24:54;;;;;;;85.22;24.05;;;;;;;-0.30;100.00;101446.22;5220157;28;20029;-70
2023/01/26 08:27:24;;;;;;;76.68;24.08;;;;;;;-0.25;100.00;101444.66;5234951;28;20585;-71
2023/01/26 08:29:55;;;;;;;75.68;22.50;;;;;;;-0.25;100.00;101445.50;5230913;28;20041;-70
2023/01/26 08:32:25;;;;;;;75.45;23.02;;;;;;;-0.29;100.00;101447.97;5227279;28;20068;-70
2023/01/26 08:34:55;;;;;;;67.68;21.90;;;;;;;-0.13;100.00;101443.22;5222616;28;20516;-71
2023/01/26 08:37:26;;;;;;;72.70;21.35;;;;;;;-0.19;100.00;101449.91;5227882;28;20282;-70
2023/01/26 08:39:56;;;;;;;75.95;23.65;;;;;;;-0.22;100.00;101450.69;5235433;28;20021;-70
2023/01/26 08:42:26;;;;;;;74.93;22.90;;;;;;;0.01;100.00;101440.06;5230283;28;20671;-70
2023/01/26 08:44:56;;;;;;;75.75;22.20;;;;;;;0.01;100.00;101440.06;5226354;28;20021;-71
2023/01/26 08:47:27;;;;;;;71.68;22.25;;;;;;;0.05;100.00;101436.72;5228331;28;20025;-70
2023/01/26 08:49:57;;;;;;;81.22;22.50;;;;;;;0.07;100.00;101424.78;5229889;28;20424;-70
2023/01/26 08:52:27;;;;;;;65.65;20.15;;;;;;;-0.03;100.00;101429.69;5234474;28;20489;-70
2023/01/26 08:54:59;;;;;;;68.35;22.67;;;;;;;-0.12;100.00;101437.22;5230285;28;20025;-71
2023/01/26 08:57:29;;;;;;;59.22;19.05;;;;;;;0.09;100.00;101433.41;5231542;28;20474;-70
2023/01/26 08:59:59;;;;;;;63.97;20.67;;;;;;;-0.06;100.00;101431.38;5230692;28;20029;-71
2023/01/26 09:02:29;;;;;;;62.88;20.63;;;;;;;0.10;100.00;101427.44;5233328;28;20538;-71
2023/01/26 09:05:00;;;;;;;67.75;20.77;;;;;;;0.13;100.00;101430.06;5225115;28;20025;-70
2023/01/26 09:07:30;;;;;;;71.38;23.15;;;;;;;0.11;100.00;101431.72;5227083;28;20033;-71
2023/01/26 09:10:00;;;;;;;72.80;21.60;;;;;;;0.05;100.00;101429.00;5230486;28;20147;-70
2023/01/26 09:12:31;;;;;;;69.38;21.73;;;;;;;-0.01;100.00;101428.91;5233137;28;20036;-70
2023/01/26 09:15:01;;;;;;;63.70;21.25;;;;;;;0.20;100.00;101426.75;5224159;28;20039;-70
2023/01/26 09:17:31;;;;;;;71.07;22.95;;;;;;;0.10;100.00;101429.13;5222388;28;20029;-70
2023/01/26 09:20:04;;;;;;;72.43;21.63;;;;;;;0.03;100.00;101434.97;5233185;28;20384;-70
2023/01/26 09:22:34;;;;;;;69.38;22.00;;;;;;;0.34;100.00;101435.59;5231709;28;20033;-71
2023/01/26 09:25:05;;;;;;;59.97;20.23;;;;;;;0.01;100.00;101434.94;5224893;28;20044;-70
2023/01/26 09:27:36;;;;;;;66.90;21.17;;;;;;;0.03;100.00;101438.41;5227970;28;20121;-70
2023/01/26 09:30:07;;;;;;;69.88;22.20;;;;;;;0.23;100.00;101431.94;5231385;28;20103;-70
2023/01/26 09:32:37;;;;;;;77.03;23.40;;;;;;;0.17;100.00;101436.09;5231324;28;20044;-70
2023/01/26 09:35:10;;;;;;;68.85;22.35;;;;;;;0.25;100.00;101437.97;5221761;28;20421;-70
2023/01/26 09:37:43;;;;;;;71.75;21.60;;;;;;;0.18;100.00;101443.00;5228533;28;20663;-70
2023/01/26 09:40:19;;;;;;;60.15;20.42;;;;;;;0.28;100.00;101440.63;5231009;28;20024;-69
2023/01/26 09:43:07;;;;;;;66.50;21.60;;;;;;;0.29;100.00;101442.38;5230066;28;20528;-70
2023/01/26 09:45:47;;;;;;;56.17;19.25;;;;;;;0.12;100.00;101443.75;5219434;28;20330;-70
2023/01/26 09:48:36;;;;;;;56.47;19.38;;;;;;;0.18;100.00;101443.84;5232262;28;20024;-70
2023/01/26 09:51:18;;;;;;;49.45;17.25;;;;;;;0.32;100.00;101439.84;5228984;28;20033;-70
2023/01/26 09:53:54;;;;;;;51.90;17.70;;;;;;;0.20;100.00;101439.59;5226494;28;20020;-70
2023/01/26 09:56:27;;;;;;;45.70;17.42;;;;;;;0.29;100.00;101442.38;5222450;28;20052;-70
2023/01/26 09:59:38;;;;;;;52.10;18.98;;;;;;;0.32;100.00;101447.56;5225396;28;20033;-70
2023/01/26 10:02:27;;;;;;;45.20;16.08;;;;;;;0.24;100.00;101433.69;5231585;28;20059;-70
2023/01/26 10:05:02;;;;;;;50.45;17.40;;;;;;;0.35;100.00;101434.75;5217123;28;20032;-70
2023/01/26 10:07:32;;;;;;;53.90;19.83;;;;;;;0.20;100.00;101447.31;5227441;28;20389;-70
2023/01/26 10:10:03;;;;;;;48.08;17.65;;;;;;;0.23;100.00;101433.66;5231609;28;20029;-70
2023/01/26 10:12:35;;;;;;;50.85;19.83;;;;;;;0.38;100.00;101434.81;5230547;28;20441;-70
2023/01/26 10:15:37;;;;;;;51.58;18.52;;;;;;;0.41;100.00;101432.28;5222614;28;20043;-70
2023/01/26 10:18:16;;;;;;;50.83;17.52;;;;;;;0.47;100.00;101432.44;5226376;28;20240;-70
2023/01/26 10:20:53;;;;;;;51.65;17.85;;;;;;;0.31;100.00;101430.41;5225742;28;20115;-70
2023/01/26 10:23:27;;;;;;;50.85;17.40;;;;;;;0.39;100.00;101439.13;5226318;28;20078;-70
2023/01/26 10:26:22;;;;;;;49.33;18.38;;;;;;;0.39;100.00;101427.97;5225740;28;20052;-70
2023/01/26 10:28:52;;;;;;;54.15;20.52;;;;;;;0.62;100.00;101424.13;5228761;28;20029;-70
2023/01/26 10:31:29;;;;;;;55.08;18.90;;;;;;;0.61;100.00;101422.38;5229513;28;20028;-70
2023/01/26 10:34:08;;;;;;;51.97;17.67;;;;;;;0.59;100.00;101421.50;5220928;28;20048;-69
2023/01/26 10:36:41;;;;;;;48.25;18.13;;;;;;;0.48;100.00;101413.59;5223175;28;20017;-70
2023/01/26 10:39:14;;;;;;;57.83;20.40;;;;;;;0.74;100.00;101411.47;5223746;28;20048;-70
2023/01/26 10:42:01;;;;;;;53.17;19.05;;;;;;;0.86;100.00;101407.41;5226246;28;20081;-70
2023/01/26 10:44:34;;;;;;;50.67;18.38;;;;;;;0.80;100.00;101402.16;5229728;28;20028;-70
2023/01/26 10:47:04;;;;;;;50.60;18.63;;;;;;;0.79;100.00;101399.56;5227104;28;20394;-70
2023/01/26 10:49:35;;;;;;;49.22;18.35;;;;;;;0.93;100.00;101398.91;5233759;28;20021;-70
2023/01/26 10:52:05;;;;;;;47.17;17.98;;;;;;;1.01;100.00;101392.22;5235204;28;20024;-70
2023/01/26 10:54:37;;;;;;;51.13;18.83;;;;;;;0.86;100.00;101386.81;5228683;28;20393;-70
2023/01/26 10:57:18;;;;;;;52.60;17.65;;;;;;;1.02;100.00;101373.34;5234305;28;20369;-70
2023/01/26 10:59:49;;;;;;;52.97;18.48;;;;;;;1.05;100.00;101372.53;5232476;28;20119;-70
2023/01/26 11:02:29;;;;;;;48.17;18.00;;;;;;;0.83;100.00;101376.47;5236213;28;20016;-70
2023/01/26 11:05:02;;;;;;;58.05;19.88;;;;;;;0.90;100.00;101367.16;5224715;28;20482;-70
2023/01/26 11:07:37;;;;;;;56.55;20.08;;;;;;;1.01;100.00;101374.19;5233823;28;20122;-70
2023/01/26 11:10:33;;;;;;;58.95;19.33;;;;;;;0.93;100.00;101375.78;5229205;28;20031;-70
2023/01/26 11:13:18;;;;;;;51.58;18.33;;;;;;;1.02;100.00;101362.19;5224222;28;20487;-70
2023/01/26 11:16:13;;;;;;;55.47;18.98;;;;;;;0.91;100.00;101359.44;5227499;28;20093;-70
2023/01/26 11:19:03;;;;;;;57.08;19.25;;;;;;;0.74;100.00;101357.47;5230187;28;20032;-70
2023/01/26 11:21:57;;;;;;;59.47;19.60;;;;;;;0.87;100.00;101365.41;5230353;28;20489;-70
2023/01/26 11:24:39;;;;;;;50.17;16.85;;;;;;;0.82;100.00;101354.19;5235290;28;20367;-70
2023/01/26 11:27:26;;;;;;;53.97;18.92;;;;;;;0.76;100.00;101356.63;5231713;28;20056;-70
2023/01/26 11:29:59;;;;;;;54.20;19.33;;;;;;;0.74;100.00;101350.59;5229263;28;20091;-70
2023/01/26 11:32:48;;;;;;;50.78;17.98;;;;;;;0.66;100.00;101346.16;5232684;28;20029;-70
2023/01/26 11:35:36;;;;;;;59.30;20.02;;;;;;;0.82;100.00;101337.84;5223595;28;20036;-70
2023/01/26 11:38:15;;;;;;;58.17;18.10;;;;;;;0.75;100.00;101342.03;5231495;28;20086;-70
2023/01/26 11:41:26;;;;;;;53.42;17.75;;;;;;;0.88;100.00;101341.41;5233536;28;20048;-70
2023/01/26 11:44:06;;;;;;;56.35;18.05;;;;;;;0.98;100.00;101343.28;5228045;28;20370;-70
2023/01/26 11:46:46;;;;;;;53.88;19.15;;;;;;;0.96;100.00;101342.41;5229013;28;20094;-69
2023/01/26 11:49:33;;;;;;;77.10;26.92;;;;;;;0.92;100.00;101343.16;5232945;28;20612;-70
2023/01/26 11:52:06;;;;;;;273.05;74.30;;;;;;;0.94;100.00;101340.63;5225782;28;20059;-69
2023/01/26 11:54:55;;;;;;;105.63;34.88;;;;;;;0.99;100.00;101336.41;5228333;28;20021;-69
2023/01/26 11:57:32;;;;;;;60.20;21.20;;;;;;;0.98;100.00;101330.41;5227408;28;20016;-70
2023/01/26 12:00:17;;;;;;;124.13;50.10;;;;;;;0.93;100.00;101323.47;5231502;28;20101;-70
2023/01/26 12:02:58;;;;;;;72.82;28.98;;;;;;;0.95;100.00;101325.22;5226286;28;20043;-70
2023/01/26 12:05:44;;;;;;;58.90;21.10;;;;;;;0.87;100.00;101326.81;5221061;28;20032;-69
2023/01/26 12:08:22;;;;;;;69.28;21.65;;;;;;;0.93;100.00;101319.16;5234848;28;20028;-70
2023/01/26 12:11:24;;;;;;;82.03;30.13;;;;;;;1.00;100.00;101322.69;5235244;28;20415;-70
2023/01/26 12:14:00;;;;;;;134.38;46.83;;;;;;;1.06;100.00;101323.66;5225020;28;20029;-70
2023/01/26 12:16:42;;;;;;;76.90;26.02;;;;;;;1.03;100.00;101327.91;5221138;28;20029;-70
2023/01/26 12:19:35;;;;;;;71.00;22.95;;;;;;;1.02;100.00;101316.75;5227691;28;20374;-71